createdAt,value
2018-07-09T00:00:15.737Z,1.83
2018-07-09T00:03:17.945Z,1.90
2018-07-09T00:06:20.280Z,1.50
2018-07-09T00:09:22.338Z,1.50
2018-07-09T00:12:24.312Z,1.40
2018-07-09T00:15:26.459Z,1.80
2018-07-09T00:18:29.737Z,1.53
2018-07-09T00:21:31.771Z,1.70
2018-07-09T00:24:34.040Z,1.60
2018-07-09T00:27:36.131Z,1.60
2018-07-09T00:30:38.295Z,1.40
2018-07-09T00:33:40.447Z,1.60
2018-07-09T00:36:42.594Z,1.60
2018-07-09T00:39:44.827Z,1.43
2018-07-09T00:42:47.817Z,1.60
2018-07-09T00:45:51.898Z,1.53
2018-07-09T00:48:54.109Z,1.70
2018-07-09T00:51:56.298Z,1.60
2018-07-09T00:55:01.978Z,1.50
2018-07-09T00:58:05.104Z,1.73
2018-07-09T01:01:07.148Z,2.10
2018-07-09T01:04:09.348Z,1.70
2018-07-09T01:07:11.500Z,1.53
2018-07-09T01:10:14.816Z,1.40
2018-07-09T01:13:20.152Z,1.30
2018-07-09T01:16:22.289Z,1.60
2018-07-09T01:19:24.386Z,1.40
2018-07-09T01:22:26.638Z,1.60
2018-07-09T01:25:29.319Z,1.37
2018-07-09T01:28:31.744Z,1.60
2018-07-09T01:31:33.927Z,1.60
2018-07-09T01:34:36.044Z,1.50
2018-07-09T01:37:38.898Z,1.63
2018-07-09T01:40:41.052Z,1.40
2018-07-09T01:43:43.164Z,1.70
2018-07-09T01:46:45.264Z,1.30
2018-07-09T01:49:47.396Z,1.70
2018-07-09T01:52:49.408Z,1.60
2018-07-09T01:55:51.453Z,1.50
2018-07-09T01:58:53.766Z,1.57
2018-07-09T02:01:55.888Z,1.40
2018-07-09T02:04:57.936Z,1.63
2018-07-09T02:08:01.788Z,1.60
2018-07-09T02:11:05.199Z,1.80
2018-07-09T02:14:07.595Z,1.87
2018-07-09T02:17:09.663Z,1.90
2018-07-09T02:20:11.761Z,1.90
2018-07-09T02:23:13.830Z,1.87
2018-07-09T02:26:19.216Z,1.70
2018-07-09T02:29:21.232Z,1.80
2018-07-09T02:32:23.287Z,1.73
2018-07-09T02:35:25.445Z,1.80
2018-07-09T02:38:27.594Z,1.60
2018-07-09T02:41:30.447Z,1.47
2018-07-09T02:44:33.561Z,1.63
2018-07-09T02:47:35.596Z,2.00
2018-07-09T02:50:37.783Z,1.90
2018-07-09T02:53:39.859Z,1.83
2018-07-09T02:56:41.972Z,1.77
2018-07-09T02:59:44.132Z,2.07
2018-07-09T03:02:46.323Z,1.67
2018-07-09T03:05:48.585Z,1.77
2018-07-09T03:08:50.650Z,1.80
2018-07-09T03:11:52.773Z,1.83
2018-07-09T03:14:54.866Z,1.90
2018-07-09T03:17:57.051Z,2.10
2018-07-09T03:21:00.143Z,2.30
2018-07-09T03:24:03.711Z,1.87
2018-07-09T03:27:05.792Z,2.00
2018-07-09T03:30:08.020Z,2.10
2018-07-09T03:33:10.113Z,1.80
2018-07-09T03:36:12.296Z,2.20
2018-07-09T03:39:14.975Z,1.93
2018-07-09T03:42:17.119Z,2.00
2018-07-09T03:45:19.231Z,1.73
2018-07-09T03:48:21.281Z,2.20
2018-07-09T03:51:23.459Z,2.00
2018-07-09T03:54:25.566Z,1.90
2018-07-09T03:57:27.583Z,2.00
2018-07-09T04:00:30.810Z,2.10
2018-07-09T04:03:32.769Z,2.23
2018-07-09T04:06:34.848Z,2.10
2018-07-09T04:09:37.029Z,2.10
2018-07-09T04:12:38.974Z,2.67
2018-07-09T04:15:41.010Z,2.03
2018-07-09T04:18:43.100Z,2.57
2018-07-09T04:21:45.165Z,1.93
2018-07-09T04:24:47.128Z,1.90
2018-07-09T04:27:49.204Z,2.10
2018-07-09T04:30:51.272Z,2.40
2018-07-09T04:33:53.368Z,2.50
2018-07-09T04:36:55.541Z,2.30
2018-07-09T04:39:57.689Z,2.10
2018-07-09T04:43:00.679Z,2.40
2018-07-09T04:46:02.871Z,2.70
2018-07-09T04:49:05.063Z,2.53
2018-07-09T04:52:07.104Z,2.17
2018-07-09T04:55:09.272Z,2.27
2018-07-09T04:58:11.328Z,2.40
2018-07-09T05:01:13.408Z,2.50
2018-07-09T05:04:15.574Z,2.90
2018-07-09T05:07:17.633Z,2.40
2018-07-09T05:10:19.761Z,2.50
2018-07-09T05:13:21.730Z,3.63
2018-07-09T05:16:23.909Z,2.70
2018-07-09T05:19:26.001Z,2.70
2018-07-09T05:22:28.362Z,2.70
2018-07-09T05:25:31.685Z,2.70
2018-07-09T05:28:33.768Z,2.67
2018-07-09T05:31:35.860Z,2.83
2018-07-09T05:34:38.058Z,2.77
2018-07-09T05:37:40.192Z,2.83
2018-07-09T05:40:42.289Z,2.67
2018-07-09T05:43:44.517Z,3.13
2018-07-09T05:46:46.764Z,2.50
2018-07-09T05:49:50.263Z,2.53
2018-07-09T05:52:52.338Z,2.80
2018-07-09T05:55:54.431Z,2.10
2018-07-09T05:58:56.953Z,2.30
2018-07-09T06:01:59.206Z,2.30
2018-07-09T06:05:02.459Z,2.47
2018-07-09T06:08:05.581Z,1.90
2018-07-09T06:11:07.866Z,2.10
2018-07-09T06:14:10.069Z,2.40
2018-07-09T06:17:12.210Z,1.83
2018-07-09T06:20:14.276Z,1.73
2018-07-09T06:23:16.280Z,2.13
2018-07-09T06:26:18.436Z,1.60
2018-07-09T06:29:20.564Z,2.30
2018-07-09T06:32:22.613Z,1.70
2018-07-09T06:35:24.791Z,2.00
2018-07-09T06:38:26.917Z,2.00
2018-07-09T06:41:28.993Z,1.83
2018-07-09T06:44:32.240Z,1.97
2018-07-09T06:47:34.328Z,1.60
2018-07-09T06:50:36.453Z,2.07
2018-07-09T06:53:38.613Z,2.20
2018-07-09T06:56:40.769Z,1.70
2018-07-09T06:59:42.785Z,1.77
2018-07-09T07:02:44.788Z,1.80
2018-07-09T07:05:46.956Z,1.60
2018-07-09T07:08:49.145Z,1.50
2018-07-09T07:11:51.172Z,1.40
2018-07-09T07:14:53.244Z,1.90
2018-07-09T07:17:55.321Z,1.93
2018-07-09T07:20:57.570Z,1.70
2018-07-09T07:23:59.647Z,1.93
2018-07-09T07:27:01.856Z,1.73
2018-07-09T07:30:04.097Z,1.73
2018-07-09T07:33:06.260Z,1.50
2018-07-09T07:36:08.383Z,1.60
2018-07-09T07:39:10.477Z,1.70
2018-07-09T07:42:12.431Z,1.70
2018-07-09T07:45:14.522Z,1.70
2018-07-09T07:48:16.709Z,1.70
2018-07-09T07:51:18.792Z,2.07
2018-07-09T07:54:20.887Z,1.37
2018-07-09T07:57:22.914Z,1.40
2018-07-09T08:00:24.980Z,1.70
2018-07-09T08:03:26.959Z,1.30
2018-07-09T08:06:29.129Z,1.50
2018-07-09T08:09:32.025Z,1.67
2018-07-09T08:13:26.877Z,1.63
2018-07-09T08:15:36.046Z,2.10
2018-07-09T08:18:38.036Z,1.83
2018-07-09T08:21:40.200Z,1.93
2018-07-09T08:24:42.274Z,2.17
2018-07-09T08:27:44.332Z,1.30
2018-07-09T08:30:46.383Z,1.53
2018-07-09T08:33:48.430Z,1.80
2018-07-09T08:36:50.527Z,1.50
2018-07-09T08:39:52.647Z,1.67
2018-07-09T08:42:54.768Z,1.73
2018-07-09T08:45:56.743Z,1.57
2018-07-09T08:48:58.782Z,1.60
2018-07-09T08:52:01.887Z,1.57
2018-07-09T08:55:03.980Z,1.30
2018-07-09T08:58:06.108Z,1.50
2018-07-09T09:01:08.204Z,1.50
2018-07-09T09:04:10.268Z,1.30
2018-07-09T09:07:12.352Z,1.30
2018-07-09T09:10:14.783Z,1.50
2018-07-09T09:13:16.787Z,1.57
2018-07-09T09:16:18.829Z,1.50
2018-07-09T09:19:20.868Z,1.33
2018-07-09T09:22:22.987Z,1.70
2018-07-09T09:25:25.266Z,1.57
2018-07-09T09:28:27.325Z,1.77
2018-07-09T09:31:29.396Z,1.30
2018-07-09T09:34:32.643Z,1.60
2018-07-09T09:37:34.675Z,1.40
2018-07-09T09:40:36.728Z,1.70
2018-07-09T09:43:38.784Z,1.60
2018-07-09T09:46:40.766Z,1.57
2018-07-09T09:49:42.978Z,1.57
2018-07-09T09:52:45.092Z,1.67
2018-07-09T09:55:47.160Z,1.60
2018-07-09T09:58:49.259Z,1.50
2018-07-09T10:01:51.456Z,1.63
2018-07-09T10:04:53.469Z,1.80
2018-07-09T10:07:55.464Z,1.93
2018-07-09T10:10:57.537Z,1.43
2018-07-09T10:13:59.595Z,1.80
2018-07-09T10:17:02.590Z,1.80
2018-07-09T10:20:04.747Z,1.80
2018-07-09T10:23:06.905Z,1.60
2018-07-09T10:26:08.999Z,1.93
2018-07-09T10:29:11.049Z,1.67
2018-07-09T10:32:13.107Z,1.57
2018-07-09T10:35:15.396Z,1.77
2018-07-09T10:38:17.473Z,1.80
2018-07-09T10:41:19.561Z,1.53
2018-07-09T10:44:21.703Z,1.80
2018-07-09T10:47:23.721Z,2.03
2018-07-09T10:50:25.751Z,1.50
2018-07-09T10:53:27.811Z,1.80
2018-07-09T10:56:29.882Z,1.73
2018-07-09T10:59:32.776Z,1.63
2018-07-09T11:02:34.837Z,1.60
2018-07-09T11:05:36.955Z,1.50
2018-07-09T11:08:39.070Z,1.63
2018-07-09T11:11:41.184Z,2.17
2018-07-09T11:14:47.910Z,1.97
2018-07-09T11:17:50.103Z,1.80
2018-07-09T11:20:52.170Z,2.07
2018-07-09T11:23:54.299Z,2.03
2018-07-09T11:26:56.417Z,2.00
2018-07-09T11:29:58.522Z,1.70
2018-07-09T11:33:00.500Z,2.23
2018-07-09T11:36:03.623Z,1.87
2018-07-09T11:39:06.171Z,2.63
2018-07-09T11:42:08.182Z,1.77
2018-07-09T11:45:10.259Z,2.13
2018-07-09T11:48:12.216Z,1.87
2018-07-09T11:51:14.269Z,2.03
2018-07-09T11:54:16.415Z,2.30
2018-07-09T11:57:18.540Z,2.17
2018-07-09T12:00:20.623Z,2.20
2018-07-09T12:03:22.659Z,2.10
2018-07-09T12:06:24.739Z,1.83
2018-07-09T12:09:26.931Z,2.10
2018-07-09T12:12:30.016Z,1.73
2018-07-09T12:15:32.575Z,1.60
2018-07-09T12:18:34.716Z,2.13
2018-07-09T12:21:37.114Z,2.10
2018-07-09T12:24:39.118Z,1.63
2018-07-09T12:27:41.244Z,1.87
2018-07-09T12:30:43.354Z,1.80
2018-07-09T12:33:45.319Z,1.80
2018-07-09T12:36:47.365Z,2.10
2018-07-09T12:39:49.552Z,2.07
2018-07-09T12:42:51.548Z,1.80
2018-07-09T12:45:53.644Z,1.90
2018-07-09T12:48:55.780Z,1.60
2018-07-09T12:51:57.883Z,1.60
2018-07-09T12:54:59.981Z,1.73
2018-07-09T12:58:03.368Z,1.80
2018-07-09T13:01:06.585Z,1.97
2018-07-09T13:04:08.607Z,1.63
2018-07-09T13:07:10.943Z,1.63
2018-07-09T13:10:13.008Z,1.50
2018-07-09T13:13:15.007Z,1.60
2018-07-09T13:16:17.181Z,1.53
2018-07-09T13:19:19.413Z,1.40
2018-07-09T13:22:21.473Z,1.50
2018-07-09T13:25:23.608Z,1.50
2018-07-09T13:28:25.696Z,1.53
2018-07-09T13:31:28.451Z,1.60
2018-07-09T13:34:30.490Z,1.70
2018-07-09T13:37:32.698Z,1.40
2018-07-09T13:40:34.831Z,1.37
2018-07-09T13:43:37.140Z,1.43
2018-07-09T13:46:39.250Z,1.40
2018-07-09T13:49:42.223Z,1.53
2018-07-09T13:52:44.472Z,1.30
2018-07-09T13:55:46.748Z,1.60
2018-07-09T13:58:48.940Z,1.30
2018-07-09T14:01:51.200Z,1.20
2018-07-09T14:04:53.273Z,1.30
2018-07-09T14:07:55.374Z,1.30
2018-07-09T14:10:57.677Z,1.50
2018-07-09T14:13:59.954Z,1.63
2018-07-09T14:17:01.947Z,2.03
2018-07-09T14:20:19.259Z,1.37
2018-07-09T14:23:21.474Z,1.53
2018-07-09T14:26:23.688Z,1.43
2018-07-09T14:29:25.809Z,1.47
2018-07-09T14:32:30.000Z,1.53
2018-07-09T14:35:33.608Z,1.40
2018-07-09T14:38:35.728Z,1.50
2018-07-09T14:41:37.800Z,1.53
2018-07-09T14:44:40.854Z,1.50
2018-07-09T14:47:42.963Z,1.60
2018-07-09T14:50:44.915Z,1.53
2018-07-09T14:53:46.974Z,1.60
2018-07-09T14:56:49.151Z,1.40
2018-07-09T14:59:51.427Z,1.50
2018-07-09T15:02:53.636Z,1.80
2018-07-09T15:05:55.772Z,1.57
2018-07-09T15:08:58.019Z,1.83
2018-07-09T15:12:01.075Z,1.70
2018-07-09T15:15:03.309Z,1.80
2018-07-09T15:18:05.516Z,1.70
2018-07-09T15:21:07.680Z,1.97
2018-07-09T15:24:09.746Z,1.67
2018-07-09T15:27:11.799Z,1.80
2018-07-09T15:30:13.866Z,1.67
2018-07-09T15:33:15.927Z,1.53
2018-07-09T15:36:17.995Z,1.67
2018-07-09T15:39:20.217Z,1.80
2018-07-09T15:42:22.461Z,1.60
2018-07-09T15:45:24.682Z,1.70
2018-07-09T15:48:26.785Z,1.60
2018-07-09T15:51:28.853Z,1.53
2018-07-09T15:54:31.963Z,1.70
2018-07-09T15:57:34.039Z,1.70
2018-07-09T16:00:36.078Z,1.53
2018-07-09T16:03:38.263Z,1.73
2018-07-09T16:06:40.357Z,1.60
2018-07-09T16:09:42.396Z,1.73
2018-07-09T16:12:44.363Z,1.53
2018-07-09T16:15:46.524Z,1.63
2018-07-09T16:18:48.656Z,1.80
2018-07-09T16:21:50.769Z,1.53
2018-07-09T16:24:52.831Z,1.70
2018-07-09T16:27:55.999Z,1.50
2018-07-09T16:30:58.036Z,1.60
2018-07-09T16:34:00.917Z,1.90
2018-07-09T16:37:02.939Z,1.60
2018-07-09T16:40:05.090Z,1.97
2018-07-09T16:43:07.242Z,1.60
2018-07-09T16:46:09.259Z,1.90
2018-07-09T16:49:12.411Z,1.60
2018-07-09T16:52:14.539Z,1.60
2018-07-09T16:55:16.540Z,1.50
2018-07-09T16:58:18.677Z,1.70
2018-07-09T17:01:20.764Z,1.67
2018-07-09T17:04:22.869Z,1.70
2018-07-09T17:07:24.990Z,1.70
2018-07-09T17:10:27.052Z,1.83
2018-07-09T17:13:29.198Z,1.70
2018-07-09T17:16:31.768Z,1.77
2018-07-09T17:19:33.778Z,1.70
2018-07-09T17:22:35.807Z,1.60
2018-07-09T17:25:37.956Z,1.90
2018-07-09T17:28:40.102Z,1.70
2018-07-09T17:31:42.141Z,1.77
2018-07-09T17:34:44.339Z,1.63
2018-07-09T17:37:46.660Z,1.80
2018-07-09T17:40:48.525Z,1.90
2018-07-09T17:43:50.915Z,2.00
2018-07-09T17:46:53.195Z,1.70
2018-07-09T17:49:56.412Z,2.00
2018-07-09T17:52:59.517Z,1.90
2018-07-09T17:56:02.683Z,2.00
2018-07-09T17:59:04.776Z,2.17
2018-07-09T18:02:07.021Z,2.10
2018-07-09T18:05:09.137Z,1.60
2018-07-09T18:08:11.177Z,1.70
2018-07-09T18:11:13.247Z,1.60
2018-07-09T18:14:15.268Z,1.70
2018-07-09T18:17:17.292Z,1.87
2018-07-09T18:20:19.344Z,1.73
2018-07-09T18:23:21.408Z,2.20
2018-07-09T18:26:23.506Z,1.90
2018-07-09T18:29:26.696Z,1.57
2018-07-09T18:32:28.919Z,1.93
2018-07-09T18:35:31.071Z,2.07
2018-07-09T18:38:33.097Z,2.03
2018-07-09T18:41:35.201Z,2.00
2018-07-09T18:44:37.432Z,1.90
2018-07-09T18:47:39.501Z,1.70
2018-07-09T18:50:41.794Z,1.80
2018-07-09T18:53:43.936Z,1.77
2018-07-09T18:56:46.074Z,1.70
2018-07-09T18:59:48.483Z,1.87
2018-07-09T19:02:50.786Z,1.70
2018-07-09T19:06:58.859Z,1.70
2018-07-09T19:10:01.613Z,2.00
2018-07-09T19:13:03.800Z,1.70
2018-07-09T19:16:06.115Z,1.80
2018-07-09T19:19:19.884Z,1.80
2018-07-09T19:22:31.103Z,1.87
2018-07-09T19:25:33.467Z,2.53
2018-07-09T19:28:34.492Z,1.77
2018-07-09T19:31:35.727Z,2.03
2018-07-09T19:34:36.996Z,1.80
2018-07-09T19:37:39.501Z,1.63
2018-07-09T19:40:40.398Z,1.80
2018-07-09T19:43:41.671Z,1.70
2018-07-09T19:46:42.856Z,2.03
2018-07-09T19:49:43.920Z,2.00
2018-07-09T19:52:46.179Z,2.07
2018-07-09T19:55:47.336Z,2.00
2018-07-09T19:58:48.456Z,2.10
2018-07-09T20:01:49.583Z,1.90
2018-07-09T20:04:50.744Z,1.70
2018-07-09T20:07:51.788Z,2.00
2018-07-09T20:10:58.703Z,2.00
2018-07-09T20:14:05.691Z,1.60
2018-07-09T20:17:20.597Z,1.60
2018-07-09T20:20:21.784Z,1.80
2018-07-09T20:23:22.908Z,2.00
2018-07-09T20:26:24.093Z,1.70
2018-07-09T20:29:26.264Z,1.70
2018-07-09T20:32:27.510Z,1.40
2018-07-09T20:35:28.534Z,1.80
2018-07-09T20:38:29.713Z,1.90
2018-07-09T20:41:30.960Z,1.70
2018-07-09T20:44:32.144Z,1.60
2018-07-09T20:47:33.492Z,1.90
2018-07-09T20:50:34.702Z,1.93
2018-07-09T20:53:35.844Z,1.60
2018-07-09T20:56:36.859Z,2.00
2018-07-09T20:59:37.927Z,1.70
2018-07-09T21:02:39.074Z,1.50
2018-07-09T21:05:40.231Z,1.50
2018-07-09T21:08:42.296Z,1.57
2018-07-09T21:11:43.423Z,1.37
2018-07-09T21:14:44.593Z,1.60
2018-07-09T21:17:45.852Z,1.77
2018-07-09T21:20:46.967Z,1.43
2018-07-09T21:23:48.127Z,1.57
2018-07-09T21:26:49.247Z,1.43
2018-07-09T21:29:51.415Z,1.50
2018-07-09T21:32:52.512Z,1.80
2018-07-09T21:35:53.749Z,1.50
2018-07-09T21:38:54.856Z,1.90
2018-07-09T21:41:56.226Z,1.90
2018-07-09T21:44:57.228Z,1.60
2018-07-09T21:48:10.425Z,1.47
2018-07-09T21:50:59.584Z,1.60
2018-07-09T21:54:00.727Z,1.60
2018-07-09T21:57:01.779Z,1.57
2018-07-09T22:00:03.048Z,1.30
2018-07-09T22:03:04.184Z,1.50
2018-07-09T22:06:05.292Z,1.20
2018-07-09T22:09:06.556Z,1.30
2018-07-09T22:12:07.576Z,1.40
2018-07-09T22:15:08.671Z,1.77
2018-07-09T22:18:09.905Z,1.57
2018-07-09T22:21:11.051Z,1.23
2018-07-09T22:24:12.232Z,2.23
2018-07-09T22:27:13.452Z,1.53
2018-07-09T22:30:16.271Z,1.63
2018-07-09T22:33:18.267Z,1.57
2018-07-09T22:36:20.357Z,1.50
2018-07-09T22:39:22.466Z,1.40
2018-07-09T22:42:24.515Z,1.73
2018-07-09T22:45:27.796Z,1.63
2018-07-09T22:48:30.041Z,1.87
2018-07-09T22:51:32.031Z,1.47
2018-07-09T22:54:34.391Z,1.40
2018-07-09T22:57:36.507Z,1.67
2018-07-09T23:00:38.567Z,1.40
2018-07-09T23:03:40.803Z,1.30
2018-07-09T23:06:42.907Z,1.50
2018-07-09T23:11:27.218Z,1.57
2018-07-09T23:14:43.616Z,1.70
2018-07-09T23:18:58.256Z,1.60
2018-07-09T23:22:21.252Z,1.80
2018-07-09T23:25:22.456Z,1.50
2018-07-09T23:28:23.588Z,1.80
2018-07-09T23:31:24.739Z,1.80
2018-07-09T23:34:26.551Z,1.67
2018-07-09T23:37:27.761Z,2.00
2018-07-09T23:40:28.892Z,1.80
2018-07-09T23:43:30.127Z,2.30
2018-07-09T23:46:31.488Z,1.83
2018-07-09T23:49:32.643Z,1.93
2018-07-09T23:52:33.786Z,2.10
2018-07-09T23:55:36.182Z,1.70
2018-07-09T23:59:50.494Z,1.97
